KCSQ

Details ICAO KCSQ
Name CRESTON MUNI
Region United States
Timezone America/Chicago (UTC-6.0)
Plans Departing 2
Arriving 4
Stats Elevation 1,300 ft / 396 m (AMSL)
Location 41.021721° -94.362829°
Runways 2
Magnetic Variation 1.400° E
Sunrise 2017-12-14 13:36:13 UTC / 2017-12-14 07:36:13 Local
Sunset 2017-12-14 22:51:05 UTC / 2017-12-14 16:51:05 Local
Advertisement - Login to hide

Runways

ID Width Length Bearing (true) Bearing (mag) Surface Threshold Offset Overrun Length
04 100 ft / 30 m 1,691 ft / 516 m 44.71° 43.31° Grass 0 ft / 0 m 0 ft / 0 m
16 75 ft / 23 m 4,907 ft / 1,496 m 164.90° 163.50° Asphalt 0 ft / 0 m 0 ft / 0 m
22 100 ft / 30 m 1,691 ft / 516 m 224.71° 223.31° Grass 0 ft / 0 m 0 ft / 0 m
34 75 ft / 23 m 4,907 ft / 1,496 m 344.90° 343.50° Asphalt 100 ft / 30 m 0 ft / 0 m

Map

Weather


0- 5 10 15 20 25 30 35+ Temperature / ° C

Clouds and Precipitation
Forecast for 2017-12-14 12:00 UTC. Updated an hour ago

Ground ~20,000 ft ~40,000 ft Winds

METAR

KCSQ 140835Z AUTO 35007KT 10SM BKN021 BKN028 BKN043 M03/M05 A3000 RMK AO2

TAF

Not found

Frequencies

Recorded 124.75 MHz AWOS 3
Unicom 122.80 MHz CTAF/UNICOM
Warning: Do not use this data for real-world aviation or navigation. No guarantee of current accuracy is given.